Time;durP1;ratioP1;P1;durP2;ratioP2;P2;SDS_P1;SDS_P2;PMS_P1;PMS_P2;Temp;Humidity;BMP_temperature;BMP_pressure;BME280_temperature;BME280_humidity;BME280_pressure;Samples;Min_cycle;Max_cycle;Signal;HPM_P1;HPM_P2
2021/12/12 00:00:57;;;;;;;12.70;5.13;;;;;;;5.62;100.00;101987.75;4801381;29;20054;-47
2021/12/12 00:03:49;;;;;;;12.55;4.70;;;;;;;5.62;100.00;101979.63;4803495;29;20061;-48
2021/12/12 00:06:40;;;;;;;13.38;5.45;;;;;;;5.60;100.00;101981.72;4803133;29;20058;-44
2021/12/12 00:09:31;;;;;;;12.02;5.22;;;;;;;5.63;100.00;101986.69;4802193;29;20109;-46
2021/12/12 00:12:34;;;;;;;17.05;5.47;;;;;;;5.62;100.00;101985.03;4870891;29;20080;-43
2021/12/12 00:15:22;;;;;;;16.02;5.43;;;;;;;5.58;100.00;101981.06;4877290;29;20106;-47
2021/12/12 00:18:10;;;;;;;13.23;5.07;;;;;;;5.62;100.00;101982.34;4876988;29;20053;-47
2021/12/12 00:20:58;;;;;;;14.02;5.25;;;;;;;5.61;100.00;101983.38;4877736;29;20137;-45
2021/12/12 00:23:45;;;;;;;13.82;5.25;;;;;;;5.61;100.00;101959.88;4878365;29;20136;-48
2021/12/12 00:26:34;;;;;;;12.55;4.82;;;;;;;5.60;100.00;101960.06;4878932;29;20056;-47
2021/12/12 00:29:23;;;;;;;15.90;5.32;;;;;;;5.62;100.00;101961.53;4877450;29;20520;-48
2021/12/12 00:32:14;;;;;;;13.35;4.50;;;;;;;5.65;100.00;101963.00;4877203;29;20057;-43
2021/12/12 00:35:05;;;;;;;17.33;5.75;;;;;;;5.68;100.00;101951.78;4877461;29;20396;-45
2021/12/12 00:37:58;;;;;;;15.25;5.10;;;;;;;5.55;100.00;101961.53;4876851;29;20397;-46
2021/12/12 00:40:48;;;;;;;17.40;6.00;;;;;;;5.55;100.00;101961.53;4874748;29;20472;-49
2021/12/12 00:43:41;;;;;;;13.95;5.43;;;;;;;5.59;100.00;101958.44;4876739;29;20069;-47
2021/12/12 00:46:29;;;;;;;18.75;5.53;;;;;;;5.64;100.00;101953.22;4865126;29;20053;-48
2021/12/12 00:49:18;;;;;;;13.68;4.80;;;;;;;5.64;100.00;101945.13;4877560;29;20587;-47
2021/12/12 00:52:08;;;;;;;12.10;4.32;;;;;;;5.69;100.00;101945.31;4876760;29;20496;-44
2021/12/12 00:54:55;;;;;;;13.15;4.88;;;;;;;5.78;100.00;101938.66;4877284;29;20041;-47
2021/12/12 00:57:49;;;;;;;11.38;4.18;;;;;;;5.76;100.00;101933.47;4876871;29;20053;-47
2021/12/12 01:00:43;;;;;;;12.52;4.40;;;;;;;5.86;100.00;101938.44;4877570;29;20048;-47
2021/12/12 01:03:35;;;;;;;11.20;4.35;;;;;;;5.85;100.00;101938.69;4878102;29;20132;-49
2021/12/12 01:06:24;;;;;;;16.92;5.38;;;;;;;5.85;100.00;101923.28;4877804;29;20105;-47
2021/12/12 01:09:16;;;;;;;16.20;5.20;;;;;;;5.77;100.00;101934.28;4876841;29;20045;-47
2021/12/12 01:12:13;;;;;;;10.10;4.10;;;;;;;5.77;100.00;101931.56;4874675;29;20101;-46
2021/12/12 01:15:18;;;;;;;12.98;4.60;;;;;;;5.87;100.00;101929.31;4876994;29;20583;-45
2021/12/12 01:18:15;;;;;;;11.45;4.57;;;;;;;5.87;100.00;101933.84;4875282;29;20064;-48
2021/12/12 01:21:14;;;;;;;19.70;5.28;;;;;;;5.87;100.00;101934.72;4874641;29;20408;-47
2021/12/12 01:24:07;;;;;;;10.40;4.25;;;;;;;5.91;100.00;101925.13;4856539;29;20058;-45
2021/12/12 01:26:56;;;;;;;12.68;4.20;;;;;;;5.93;100.00;101923.03;4861623;29;20050;-46
2021/12/12 01:29:45;;;;;;;11.30;4.28;;;;;;;5.89;100.00;101932.63;4865158;29;20053;-49
2021/12/12 01:32:33;;;;;;;14.27;4.95;;;;;;;5.92;100.00;101926.81;4882026;29;20053;-49
2021/12/12 01:35:21;;;;;;;12.43;4.68;;;;;;;6.00;100.00;101923.06;4867545;29;20064;-48
2021/12/12 01:41:16;;;;;;;13.68;4.53;;;;;;;5.89;100.00;101932.63;4880722;29;20461;-48
2021/12/12 01:44:14;;;;;;;11.43;4.65;;;;;;;5.89;100.00;101935.34;4879018;29;20077;-47
2021/12/12 01:47:04;;;;;;;12.32;4.70;;;;;;;5.94;100.00;101935.56;4879120;29;20057;-45
2021/12/12 01:49:56;;;;;;;15.48;5.20;;;;;;;5.92;100.00;101926.81;4878398;29;20088;-45
2021/12/12 01:52:45;;;;;;;12.25;4.50;;;;;;;6.04;100.00;101920.75;4877863;29;20113;-47
2021/12/12 01:55:55;;;;;;;13.85;4.50;;;;;;;5.97;100.00;101935.16;4879962;29;20052;-44
2021/12/12 01:58:45;;;;;;;8.40;3.47;;;;;;;6.01;100.00;101923.91;4877047;29;20422;-46
2021/12/12 02:01:45;;;;;;;12.50;4.45;;;;;;;6.03;100.00;101928.06;4878095;29;20053;-46
2021/12/12 02:04:39;;;;;;;11.10;4.40;;;;;;;6.11;100.00;101925.16;4880966;29;20469;-45
2021/12/12 02:07:30;;;;;;;12.43;4.22;;;;;;;6.01;100.00;101923.91;4867107;29;20053;-47
2021/12/12 02:10:22;;;;;;;12.98;4.60;;;;;;;5.95;100.00;101926.41;4866406;29;20049;-46
2021/12/12 02:13:12;;;;;;;19.38;5.88;;;;;;;5.96;100.00;101933.50;4877338;29;20057;-48
2021/12/12 02:16:01;;;;;;;11.18;3.90;;;;;;;5.87;100.00;101926.59;4877406;29;20109;-46
2021/12/12 02:18:52;;;;;;;9.73;4.13;;;;;;;5.86;100.00;101919.50;4862245;29;20063;-46
2021/12/12 02:22:02;;;;;;;12.75;4.55;;;;;;;5.92;100.00;101924.09;4865863;29;20061;-49
2021/12/12 02:36:55;;;;;;;11.82;4.28;;;;;;;5.89;100.00;101911.00;4876823;29;20041;-48
2021/12/12 02:39:42;;;;;;;14.32;4.22;;;;;;;5.87;100.00;101917.63;4864476;29;20495;-49
2021/12/12 02:42:31;;;;;;;13.35;4.43;;;;;;;5.85;100.00;101915.16;4863119;29;20101;-48
2021/12/12 02:45:20;;;;;;;12.27;4.78;;;;;;;5.88;100.00;101906.63;4876515;29;20049;-48
2021/12/12 02:48:09;;;;;;;10.63;3.72;;;;;;;6.00;100.00;101903.31;4877486;29;20067;-49
2021/12/12 02:51:00;;;;;;;15.95;4.82;;;;;;;5.98;100.00;101890.81;4878178;29;20053;-44
2021/12/12 02:53:54;;;;;;;14.35;4.95;;;;;;;5.90;100.00;101898.31;4875652;29;20507;-49
2021/12/12 02:56:46;;;;;;;15.20;4.80;;;;;;;5.95;100.00;101887.72;4879025;29;20102;-48
2021/12/12 02:59:35;;;;;;;13.80;5.05;;;;;;;5.88;100.00;101893.09;4879593;29;20061;-51
2021/12/12 03:02:30;;;;;;;14.60;4.28;;;;;;;5.85;100.00;101893.53;4877687;29;20048;-51
2021/12/12 03:05:21;;;;;;;10.77;4.00;;;;;;;5.87;100.00;101891.44;4876293;29;20123;-47
2021/12/12 03:08:10;;;;;;;10.35;3.70;;;;;;;5.91;100.00;101881.84;4878406;29;20057;-47
2021/12/12 03:10:58;;;;;;;9.23;3.50;;;;;;;5.94;100.00;101880.63;4878658;29;20072;-47
2021/12/12 03:13:46;;;;;;;14.25;4.70;;;;;;;5.92;100.00;101888.09;4879445;29;20475;-48
2021/12/12 03:16:34;;;;;;;11.45;4.28;;;;;;;5.89;100.00;101877.69;4847563;29;20079;-47
2021/12/12 03:19:22;;;;;;;12.57;4.55;;;;;;;5.86;100.00;101878.94;4870141;29;20115;-47
2021/12/12 03:22:10;;;;;;;12.27;4.50;;;;;;;5.92;100.00;101878.13;4876323;29;20506;-42
2021/12/12 03:24:57;;;;;;;11.40;4.20;;;;;;;6.02;100.00;101879.59;4878564;29;20223;-46
2021/12/12 03:27:45;;;;;;;11.10;4.05;;;;;;;5.94;100.00;101865.25;4879143;29;20453;-48
2021/12/12 03:30:33;;;;;;;12.27;4.03;;;;;;;6.01;100.00;101862.50;4878573;29;20118;-46
2021/12/12 03:33:21;;;;;;;15.70;4.68;;;;;;;5.97;100.00;101859.41;4879465;29;20053;-43
2021/12/12 03:36:11;;;;;;;13.35;4.75;;;;;;;5.96;100.00;101848.78;4878812;29;20052;-48
2021/12/12 03:39:01;;;;;;;11.65;4.10;;;;;;;6.03;100.00;101846.06;4858141;29;20041;-49
2021/12/12 03:41:50;;;;;;;12.63;4.32;;;;;;;5.98;100.00;101847.53;4878206;29;20049;-48
2021/12/12 03:44:39;;;;;;;9.82;3.78;;;;;;;5.95;100.00;101842.56;4877402;29;20053;-47
2021/12/12 03:47:43;;;;;;;10.73;4.10;;;;;;;5.98;100.00;101839.41;4877420;29;20113;-47
2021/12/12 03:50:33;;;;;;;10.95;4.57;;;;;;;5.97;100.00;101839.66;4879196;29;20053;-49
2021/12/12 03:53:21;;;;;;;10.93;4.35;;;;;;;5.98;100.00;101838.59;4877921;29;20060;-46
2021/12/12 03:56:11;;;;;;;10.45;3.70;;;;;;;6.04;100.00;101855.84;4877984;29;20077;-49
2021/12/12 03:58:58;;;;;;;13.77;3.85;;;;;;;6.12;100.00;101851.03;4876885;29;20118;-46
2021/12/12 04:01:48;;;;;;;8.98;3.97;;;;;;;6.08;100.00;101840.84;4877999;29;20049;-47
2021/12/12 04:04:30;;;;;;;11.35;4.10;;;;;;;6.03;100.00;101841.47;4878289;29;20088;-47
2021/12/12 04:07:26;;;;;;;12.25;3.88;;;;;;;6.02;100.00;101844.41;4878567;29;20053;-46
2021/12/12 04:10:18;;;;;;;12.00;3.88;;;;;;;6.16;100.00;101844.16;4878482;29;20040;-45
2021/12/12 04:13:05;;;;;;;6.95;3.00;;;;;;;6.18;100.00;101849.34;4879214;29;20056;-45
2021/12/12 04:15:55;;;;;;;13.13;4.05;;;;;;;6.19;100.00;101861.84;4877376;29;20064;-45
2021/12/12 04:18:43;;;;;;;10.23;3.53;;;;;;;6.14;100.00;101856.25;4877790;29;20113;-45
2021/12/12 04:21:31;;;;;;;11.68;4.32;;;;;;;6.12;100.00;101861.84;4859360;29;20098;-47
2021/12/12 04:24:26;;;;;;;12.23;4.13;;;;;;;6.07;100.00;101863.53;4860652;29;20057;-42
2021/12/12 04:27:15;;;;;;;9.73;3.63;;;;;;;6.16;100.00;101863.09;4858531;29;20434;-46
2021/12/12 04:30:05;;;;;;;9.43;3.95;;;;;;;6.18;100.00;101865.56;4863378;29;20052;-45
2021/12/12 04:32:53;;;;;;;9.63;4.05;;;;;;;6.21;100.00;101859.75;4877466;29;20429;-45
2021/12/12 04:35:40;;;;;;;12.70;4.13;;;;;;;6.17;100.00;101869.34;4878476;29;20060;-45
2021/12/12 04:38:28;;;;;;;8.90;3.20;;;;;;;6.18;100.00;101868.28;4878276;29;20060;-49
2021/12/12 04:41:15;;;;;;;7.90;3.42;;;;;;;6.13;100.00;101863.53;4876726;29;20096;-44
2021/12/12 04:44:04;;;;;;;9.15;3.50;;;;;;;6.16;100.00;101870.41;4868055;29;20064;-47
2021/12/12 04:50:36;;;;;;;7.85;3.15;;;;;;;6.14;100.00;101864.34;4867028;29;20133;-47
2021/12/12 04:53:47;;;;;;;7.20;3.13;;;;;;;6.17;100.00;101864.75;4875827;29;20101;-47
2021/12/12 04:56:59;;;;;;;9.07;3.17;;;;;;;6.17;100.00;101872.03;4874302;29;20053;-45
2021/12/12 04:59:50;;;;;;;7.93;3.40;;;;;;;6.26;100.00;101872.66;4878898;29;20506;-47
2021/12/12 05:03:02;;;;;;;8.70;3.35;;;;;;;6.26;100.00;101868.06;4862248;29;20072;-48
2021/12/12 05:06:08;;;;;;;8.60;3.10;;;;;;;6.24;100.00;101874.75;4863416;29;20140;-47
2021/12/12 05:09:05;;;;;;;7.90;2.95;;;;;;;6.15;100.00;101880.38;4863901;29;20053;-49
2021/12/12 05:11:57;;;;;;;9.25;3.13;;;;;;;6.24;100.00;101870.16;4875044;29;20045;-48
2021/12/12 05:14:54;;;;;;;8.73;3.20;;;;;;;6.21;100.00;101883.28;4867030;29;20053;-47
2021/12/12 05:18:27;;;;;;;9.25;3.60;;;;;;;6.17;100.00;101880.16;4868323;29;20057;-47
2021/12/12 05:21:26;;;;;;;11.05;3.08;;;;;;;6.20;100.00;101887.84;4860819;29;20090;-48
2021/12/12 05:24:15;;;;;;;9.60;3.65;;;;;;;6.20;100.00;101885.13;4846144;29;20069;-48
2021/12/12 05:27:07;;;;;;;7.95;3.45;;;;;;;6.19;100.00;101878.09;4846522;29;20225;-50
2021/12/12 05:30:00;;;;;;;6.43;3.10;;;;;;;6.34;100.00;101870.53;4859824;29;20075;-45
2021/12/12 05:32:49;;;;;;;8.90;3.20;;;;;;;6.32;100.00;101872.59;4847187;29;20060;-45
2021/12/12 05:35:39;;;;;;;7.85;3.03;;;;;;;6.30;100.00;101869.31;4859693;29;20053;-48
2021/12/12 05:38:28;;;;;;;8.25;2.70;;;;;;;6.28;100.00;101878.69;4860387;29;20493;-46
2021/12/12 05:41:18;;;;;;;5.38;2.67;;;;;;;6.24;100.00;101885.56;4843683;29;20544;-47
2021/12/12 05:44:06;;;;;;;8.32;3.05;;;;;;;6.21;100.00;101886.00;4859443;29;20469;-47
2021/12/12 05:46:59;;;;;;;6.50;3.08;;;;;;;6.14;100.00;101881.41;4847732;29;20053;-48
2021/12/12 05:49:47;;;;;;;6.82;2.97;;;;;;;6.17;100.00;101881.00;4858878;29;20051;-43
2021/12/12 05:52:34;;;;;;;9.07;3.65;;;;;;;6.16;100.00;101883.94;4871216;29;20053;-47
2021/12/12 05:55:33;;;;;;;5.75;2.80;;;;;;;6.15;100.00;101877.66;4847084;29;20060;-48
2021/12/12 05:58:22;;;;;;;6.05;2.45;;;;;;;6.22;100.00;101877.66;4861376;29;20504;-47
2021/12/12 06:01:10;;;;;;;7.10;2.90;;;;;;;6.28;100.00;101887.63;4861968;29;20054;-47
2021/12/12 06:04:01;;;;;;;6.50;2.70;;;;;;;6.27;100.00;101885.94;4877415;29;20104;-49
2021/12/12 06:06:49;;;;;;;6.45;2.90;;;;;;;6.28;100.00;101895.75;4880613;29;20045;-43
2021/12/12 06:09:38;;;;;;;6.75;2.80;;;;;;;6.29;100.00;101878.47;4863441;29;20061;-47
2021/12/12 06:12:26;;;;;;;4.20;2.30;;;;;;;6.35;100.00;101877.63;4864315;29;20052;-48
2021/12/12 06:15:16;;;;;;;5.72;2.70;;;;;;;6.48;100.00;101892.13;4879145;29;20053;-46
2021/12/12 06:18:05;;;;;;;9.43;3.55;;;;;;;6.37;100.00;101891.78;4879788;29;20520;-46
2021/12/12 06:20:53;;;;;;;5.03;2.67;;;;;;;6.32;100.00;101899.66;4865364;29;20061;-47
2021/12/12 06:23:41;;;;;;;6.68;2.92;;;;;;;6.29;100.00;101897.41;4878759;29;20080;-47
2021/12/12 06:26:29;;;;;;;4.53;2.72;;;;;;;6.34;100.00;101905.72;4879089;29;20056;-44
2021/12/12 06:29:17;;;;;;;5.93;2.58;;;;;;;6.31;100.00;101902.63;4880251;29;20060;-47
2021/12/12 06:32:05;;;;;;;5.25;2.50;;;;;;;6.28;100.00;101901.16;4879417;29;20048;-48
2021/12/12 06:34:56;;;;;;;5.88;3.00;;;;;;;6.35;100.00;101904.69;4878866;29;20041;-47
2021/12/12 06:37:44;;;;;;;5.95;2.78;;;;;;;6.34;100.00;101905.72;4878680;29;20053;-47
2021/12/12 06:40:33;;;;;;;4.43;2.60;;;;;;;6.35;100.00;101899.28;4876397;29;20086;-46
2021/12/12 06:43:21;;;;;;;6.18;2.90;;;;;;;6.32;100.00;101899.66;4880196;29;20057;-47
2021/12/12 06:46:10;;;;;;;5.60;2.67;;;;;;;6.34;100.00;101899.47;4879888;29;20053;-47
2021/12/12 06:48:59;;;;;;;5.45;3.10;;;;;;;6.50;100.00;101900.88;4880006;29;20053;-45
2021/12/12 06:51:57;;;;;;;6.07;2.40;;;;;;;6.58;100.00;101895.22;4880410;29;20075;-48
2021/12/12 06:54:47;;;;;;;6.57;3.00;;;;;;;6.59;100.00;101884.19;4880490;29;20073;-48
2021/12/12 06:57:34;;;;;;;7.13;3.28;;;;;;;6.85;100.00;101876.13;4878897;29;20869;-51
2021/12/12 07:00:24;;;;;;;5.70;3.03;;;;;;;7.02;100.00;101882.69;4878808;29;20055;-45
2021/12/12 07:03:17;;;;;;;5.38;3.00;;;;;;;6.77;100.00;101880.75;4878511;29;20060;-49
2021/12/12 07:06:05;;;;;;;6.72;3.35;;;;;;;7.00;100.00;101879.38;4878231;29;20049;-47
2021/12/12 07:08:56;;;;;;;8.57;3.47;;;;;;;6.83;100.00;101885.31;4875688;29;20401;-46
2021/12/12 07:11:45;;;;;;;7.85;3.40;;;;;;;7.03;100.00;101887.06;4878704;29;20061;-47
2021/12/12 07:14:35;;;;;;;7.50;3.45;;;;;;;7.04;100.00;101888.72;4879035;29;20511;-48
2021/12/12 07:17:23;;;;;;;10.63;4.13;;;;;;;7.17;100.00;101885.94;4878164;29;20406;-47
2021/12/12 07:20:12;;;;;;;5.80;3.03;;;;;;;7.07;100.00;101901.84;4878749;29;20049;-47
2021/12/12 07:23:02;;;;;;;12.95;3.63;;;;;;;7.11;100.00;101903.06;4879374;29;20113;-47
2021/12/12 07:25:49;;;;;;;9.82;3.22;;;;;;;7.06;100.00;101900.19;4865984;29;20061;-45
2021/12/12 07:28:38;;;;;;;7.57;3.50;;;;;;;7.52;100.00;101899.00;4865474;29;20049;-48
2021/12/12 07:31:31;;;;;;;10.15;4.00;;;;;;;7.25;100.00;101903.81;4878672;29;20220;-47
2021/12/12 07:34:18;;;;;;;7.97;3.80;;;;;;;7.09;100.00;101897.03;4877829;29;20052;-53
2021/12/12 07:37:08;;;;;;;7.28;3.35;;;;;;;6.89;100.00;101904.44;4864934;29;20055;-47
2021/12/12 07:39:56;;;;;;;9.93;4.28;;;;;;;6.93;100.00;101913.81;4878062;29;20064;-48
2021/12/12 07:42:46;;;;;;;6.38;3.38;;;;;;;6.79;100.00;101911.16;4863969;29;20053;-49
2021/12/12 07:45:35;;;;;;;8.30;4.00;;;;;;;6.78;100.00;101914.94;4877732;29;20053;-49
2021/12/12 07:48:23;;;;;;;9.02;3.92;;;;;;;6.69;100.00;101920.81;4877584;29;20423;-47
2021/12/12 07:51:11;;;;;;;9.85;4.13;;;;;;;6.81;100.00;101919.91;4861144;29;20056;-46
2021/12/12 07:54:01;;;;;;;11.73;4.78;;;;;;;6.94;100.00;101921.72;4877718;29;20049;-52
2021/12/12 07:56:49;;;;;;;6.78;3.58;;;;;;;6.78;100.00;101924.91;4863313;29;20488;-51
2021/12/12 07:59:38;;;;;;;11.38;4.55;;;;;;;6.74;100.00;101924.53;4874832;29;20109;-48
2021/12/12 08:02:27;;;;;;;11.00;3.83;;;;;;;6.75;100.00;101928.88;4874513;29;20061;-48
2021/12/12 08:05:18;;;;;;;11.43;4.78;;;;;;;6.79;100.00;101938.25;4872912;29;20041;-50
2021/12/12 08:08:08;;;;;;;9.95;4.28;;;;;;;6.74;100.00;101937.25;4865261;29;20056;-46
2021/12/12 08:10:57;;;;;;;10.30;4.78;;;;;;;6.68;100.00;101949.75;4872842;29;20057;-52
2021/12/12 08:13:44;;;;;;;10.20;4.88;;;;;;;6.62;100.00;101947.91;4875098;29;20101;-47
2021/12/12 08:16:32;;;;;;;9.82;5.00;;;;;;;6.58;100.00;101949.38;4860501;29;20786;-52
2021/12/12 08:19:22;;;;;;;12.63;5.63;;;;;;;6.57;100.00;101958.56;4859944;29;20068;-46
2021/12/12 08:22:11;;;;;;;11.82;5.25;;;;;;;6.56;100.00;101959.59;4868187;29;20040;-48
2021/12/12 08:25:00;;;;;;;15.73;6.20;;;;;;;6.64;100.00;101959.38;4863218;29;20045;-46
2021/12/12 08:27:48;;;;;;;14.38;6.13;;;;;;;6.75;100.00;101958.69;4876022;29;20052;-45
2021/12/12 08:30:37;;;;;;;17.20;5.93;;;;;;;6.75;100.00;101965.97;4852770;29;20053;-48
2021/12/12 08:33:28;;;;;;;11.27;5.05;;;;;;;6.83;100.00;101972.00;4877509;29;20045;-43
2021/12/12 08:36:16;;;;;;;12.80;4.82;;;;;;;6.76;100.00;101976.59;4875706;29;20052;-46
2021/12/12 08:39:05;;;;;;;35.38;10.20;;;;;;;7.00;100.00;101975.06;4860105;29;20049;-46
2021/12/12 08:41:54;;;;;;;14.10;5.57;;;;;;;7.02;100.00;101969.41;4875140;29;20049;-49
2021/12/12 08:44:42;;;;;;;13.05;5.70;;;;;;;7.07;100.00;101976.88;4875007;29;20057;-49
2021/12/12 08:47:34;;;;;;;16.55;6.47;;;;;;;7.02;100.00;101974.81;4874867;29;20057;-50
2021/12/12 08:50:26;;;;;;;16.20;6.15;;;;;;;6.97;100.00;101982.75;4863201;29;20407;-47
2021/12/12 08:53:15;;;;;;;10.80;5.20;;;;;;;6.90;100.00;101976.53;4875642;29;20049;-48
2021/12/12 08:56:04;;;;;;;18.73;10.73;;;;;;;6.89;100.00;101980.31;4863865;29;20049;-49
2021/12/12 08:58:53;;;;;;;16.08;6.35;;;;;;;6.92;100.00;101982.56;4877269;29;20060;-46
2021/12/12 09:01:41;;;;;;;14.93;5.63;;;;;;;6.98;100.00;101987.16;4864091;29;20132;-44
2021/12/12 09:04:33;;;;;;;11.20;5.00;;;;;;;6.99;100.00;101986.09;4862581;29;20089;-49
2021/12/12 09:07:32;;;;;;;12.45;4.78;;;;;;;6.99;100.00;101983.38;4864004;29;20449;-48
2021/12/12 09:10:24;;;;;;;11.88;5.32;;;;;;;7.01;100.00;101994.84;4850633;29;20464;-46
2021/12/12 09:13:06;;;;;;;10.98;5.40;;;;;;;7.07;100.00;101999.41;4861035;29;20116;-48
2021/12/12 09:16:21;;;;;;;16.02;5.43;;;;;;;7.03;100.00;102003.59;4877224;29;20060;-49
2021/12/12 09:19:16;;;;;;;10.38;5.20;;;;;;;7.06;100.00;102005.88;4857400;29;20538;-45
2021/12/12 09:22:10;;;;;;;8.83;4.67;;;;;;;7.01;100.00;102016.53;4855748;29;20520;-49
2021/12/12 09:25:07;;;;;;;12.55;5.55;;;;;;;6.97;100.00;102021.53;4843309;29;20539;-50
2021/12/12 09:28:07;;;;;;;10.02;5.18;;;;;;;6.98;100.00;102028.63;4857418;29;20096;-49
2021/12/12 09:30:57;;;;;;;9.95;5.35;;;;;;;7.01;100.00;102021.94;4844570;29;20493;-48
2021/12/12 09:33:48;;;;;;;13.95;5.47;;;;;;;7.00;100.00;102026.53;4843899;29;20077;-49
2021/12/12 09:36:42;;;;;;;10.45;5.28;;;;;;;7.04;100.00;102026.91;4856151;29;20057;-48
2021/12/12 09:39:50;;;;;;;13.25;5.88;;;;;;;7.12;100.00;102028.53;4856040;29;20057;-48
2021/12/12 09:43:08;;;;;;;17.35;6.68;;;;;;;7.28;100.00;102040.78;4853780;29;20053;-48
2021/12/12 09:46:01;;;;;;;12.35;5.90;;;;;;;7.24;100.00;102035.81;4839995;29;20425;-47
2021/12/12 09:53:00;;;;;;;19.33;7.28;;;;;;;7.44;100.00;102037.59;4828470;29;20560;-50
2021/12/12 09:55:53;;;;;;;12.15;5.82;;;;;;;7.46;100.00;102039.03;4858107;29;20477;-46
2021/12/12 09:59:02;;;;;;;10.65;5.25;;;;;;;7.37;100.00;102036.78;4860059;29;20153;-44
2021/12/12 10:02:27;;;;;;;14.05;5.82;;;;;;;7.40;100.00;102039.06;4860913;29;20081;-47
2021/12/12 10:05:17;;;;;;;11.50;6.22;;;;;;;7.46;100.00;102036.31;4849873;29;20068;-48
2021/12/12 10:08:25;;;;;;;13.10;6.00;;;;;;;7.47;100.00;102043.38;4846968;29;20061;-46
2021/12/12 10:11:26;;;;;;;15.35;6.00;;;;;;;7.37;100.00;102036.78;4845813;29;20080;-47
2021/12/12 10:14:31;;;;;;;10.45;5.68;;;;;;;7.38;100.00;102041.16;4862443;29;20049;-49
2021/12/12 10:17:35;;;;;;;11.18;6.10;;;;;;;7.50;100.00;102031.28;4878099;29;20056;-49
2021/12/12 10:20:32;;;;;;;12.50;5.70;;;;;;;7.52;100.00;102034.59;4865991;29;20055;-47
2021/12/12 10:23:48;;;;;;;11.20;5.20;;;;;;;7.42;100.00;102036.97;4866021;29;20053;-50
2021/12/12 10:26:42;;;;;;;13.02;5.72;;;;;;;7.54;100.00;102034.41;4880510;29;20052;-48
2021/12/12 10:29:45;;;;;;;13.32;5.45;;;;;;;7.54;100.00;102032.50;4866481;29;20400;-47
2021/12/12 10:32:37;;;;;;;12.63;5.82;;;;;;;7.45;100.00;102036.53;4852953;29;20057;-46
2021/12/12 10:35:28;;;;;;;10.55;5.18;;;;;;;7.50;100.00;102039.41;4866014;29;20045;-49
2021/12/12 10:38:20;;;;;;;13.55;5.60;;;;;;;7.64;100.00;102038.28;4880366;29;20484;-50
2021/12/12 10:41:14;;;;;;;10.25;5.10;;;;;;;7.53;100.00;102035.44;4866761;29;20468;-51
2021/12/12 10:44:04;;;;;;;11.23;5.30;;;;;;;7.46;100.00;102035.50;4865034;29;20061;-49
2021/12/12 10:47:15;;;;;;;11.90;5.55;;;;;;;7.45;100.00;102045.47;4878107;29;20113;-50
2021/12/12 10:50:11;;;;;;;10.50;4.93;;;;;;;7.48;100.00;102044.25;4863031;29;20140;-48
2021/12/12 10:53:05;;;;;;;11.88;5.22;;;;;;;7.54;100.00;102042.53;4877743;29;20057;-49
2021/12/12 10:56:16;;;;;;;10.25;4.57;;;;;;;7.56;100.00;102040.44;4880597;29;20045;-46
2021/12/12 10:59:31;;;;;;;9.70;5.30;;;;;;;7.51;100.00;102041.09;4859421;29;20062;-50
2021/12/12 11:02:24;;;;;;;11.02;5.18;;;;;;;7.56;100.00;102041.25;4783261;30;20155;-47
2021/12/12 11:05:19;;;;;;;9.98;5.57;;;;;;;7.57;100.00;102033.94;4785111;30;20059;-49
2021/12/12 11:08:14;;;;;;;11.10;5.32;;;;;;;7.63;100.00;102027.66;4783502;29;20115;-49
2021/12/12 11:11:25;;;;;;;10.00;5.03;;;;;;;7.60;100.00;102037.06;4780603;29;20137;-48
2021/12/12 11:14:31;;;;;;;11.82;5.13;;;;;;;7.83;100.00;102024.81;4789841;29;20054;-49
2021/12/12 11:17:32;;;;;;;13.18;5.22;;;;;;;7.88;100.00;102027.69;4791592;29;20138;-53
2021/12/12 11:20:25;;;;;;;10.40;5.20;;;;;;;7.76;100.00;102026.75;4773983;30;20067;-45
2021/12/12 11:23:23;;;;;;;8.98;4.18;;;;;;;7.92;100.00;102026.22;4784786;30;20052;-50
2021/12/12 11:26:18;;;;;;;10.27;4.72;;;;;;;7.85;100.00;102028.97;4784653;30;20070;-48
2021/12/12 11:29:17;;;;;;;10.07;4.55;;;;;;;7.97;100.00;102025.53;4780763;29;20057;-48
2021/12/12 11:32:11;;;;;;;10.30;5.10;;;;;;;7.87;100.00;102023.31;4800450;29;20063;-48
2021/12/12 11:35:09;;;;;;;8.25;4.35;;;;;;;7.79;100.00;102029.00;4802440;29;20066;-50
2021/12/12 11:38:05;;;;;;;8.45;5.05;;;;;;;7.89;100.00;102024.78;4800702;29;20062;-47
2021/12/12 11:41:11;;;;;;;8.63;4.90;;;;;;;7.90;100.00;102031.03;4862487;29;20088;-47
2021/12/12 11:44:20;;;;;;;6.38;4.13;;;;;;;7.92;100.00;102028.91;4877303;29;20121;-49
2021/12/12 11:47:45;;;;;;;11.20;4.43;;;;;;;7.99;100.00;102029.69;4851542;29;20061;-49
2021/12/12 11:51:00;;;;;;;9.43;4.85;;;;;;;8.11;100.00;102021.69;4863771;29;20064;-45
2021/12/12 11:54:01;;;;;;;9.55;3.95;;;;;;;8.01;100.00;102032.19;4864587;29;20049;-47
2021/12/12 11:57:03;;;;;;;8.90;5.03;;;;;;;7.95;100.00;102020.34;4877453;29;20180;-48
2021/12/12 12:00:08;;;;;;;10.35;5.07;;;;;;;7.90;100.00;102026.41;4189824;29;10000797;-49
2021/12/12 12:03:04;;;;;;;9.10;5.43;;;;;;;7.80;100.00;102025.25;4867609;29;20108;-45
2021/12/12 12:06:23;;;;;;;7.68;4.82;;;;;;;7.75;100.00;102033.22;4863923;29;20058;-53
2021/12/12 12:09:35;;;;;;;10.35;5.40;;;;;;;7.79;100.00;102038.00;4843630;29;20616;-48
2021/12/12 12:12:26;;;;;;;15.85;10.10;;;;;;;7.81;100.00;102037.75;4858586;29;20068;-50
2021/12/12 12:15:41;;;;;;;21.38;16.95;;;;;;;7.89;100.00;102034.78;4857748;29;20440;-48
2021/12/12 12:18:41;;;;;;;11.77;7.28;;;;;;;7.86;100.00;102041.50;4856732;29;20119;-49
2021/12/12 12:21:54;;;;;;;10.48;6.60;;;;;;;7.85;100.00;102044.41;4871763;29;20080;-51
2021/12/12 12:25:02;;;;;;;28.90;22.95;;;;;;;7.92;100.00;102044.38;4877066;29;20068;-49
2021/12/12 12:27:59;;;;;;;11.63;7.38;;;;;;;7.92;100.00;102041.66;4874971;29;20053;-47
2021/12/12 12:31:08;;;;;;;14.48;10.75;;;;;;;7.93;100.00;102041.44;4861131;29;20053;-48
2021/12/12 12:34:33;;;;;;;19.38;15.23;;;;;;;7.97;100.00;102052.69;4872510;29;20057;-45
2021/12/12 12:37:59;;;;;;;25.65;19.90;;;;;;;7.99;100.00;102050.59;4873785;29;20141;-48
2021/12/12 12:41:17;;;;;;;48.15;34.55;;;;;;;8.07;100.00;102053.84;4874547;29;20117;-50
2021/12/12 12:44:35;;;;;;;15.55;10.43;;;;;;;8.08;100.00;102051.94;4876977;29;20057;-52
2021/12/12 12:48:01;;;;;;;15.07;9.63;;;;;;;8.05;100.00;102055.94;4874192;29;20045;-49
2021/12/12 12:51:03;;;;;;;9.27;5.97;;;;;;;8.01;100.00;102053.88;4877033;29;20369;-50
2021/12/12 12:53:56;;;;;;;7.97;4.82;;;;;;;7.97;100.00;102053.50;4863284;29;20064;-49
2021/12/12 12:57:06;;;;;;;8.90;4.95;;;;;;;7.97;100.00;102052.69;4863422;29;20045;-49
2021/12/12 13:00:03;;;;;;;8.63;5.20;;;;;;;7.98;100.00;102057.88;4876184;29;20049;-49
2021/12/12 13:03:09;;;;;;;12.15;7.78;;;;;;;7.99;100.00;102054.13;4876874;29;20061;-49
2021/12/12 13:06:07;;;;;;;7.40;4.90;;;;;;;8.04;100.00;102059.72;4876708;29;20406;-49
2021/12/12 13:09:10;;;;;;;9.95;5.88;;;;;;;8.07;100.00;102064.69;4876594;29;20105;-49
2021/12/12 13:12:11;;;;;;;18.45;13.73;;;;;;;8.13;100.00;102057.56;4875235;29;20385;-49
2021/12/12 13:15:29;;;;;;;7.95;4.47;;;;;;;8.10;100.00;102049.84;4877467;29;20057;-48
2021/12/12 13:18:29;;;;;;;8.50;5.25;;;;;;;8.08;100.00;102060.09;4877154;29;20505;-49
2021/12/12 13:21:36;;;;;;;9.65;4.88;;;;;;;8.06;100.00;102056.81;4877978;29;20152;-47
2021/12/12 13:24:53;;;;;;;7.22;4.60;;;;;;;8.07;100.00;102059.28;4880484;29;20053;-49
2021/12/12 13:28:02;;;;;;;10.80;5.30;;;;;;;8.08;100.00;102060.94;4879941;29;20538;-50
2021/12/12 13:31:36;;;;;;;11.65;6.93;;;;;;;8.15;100.00;102065.47;4880209;29;20057;-49
2021/12/12 13:34:37;;;;;;;12.30;8.50;;;;;;;8.23;100.00;102073.38;4865920;29;20053;-48
2021/12/12 13:37:24;;;;;;;8.85;5.00;;;;;;;8.19;100.00;102077.56;4880209;29;20057;-48
2021/12/12 13:40:20;;;;;;;8.55;5.40;;;;;;;8.16;100.00;102075.31;4879829;29;20068;-45
2021/12/12 13:43:20;;;;;;;8.75;5.35;;;;;;;8.15;100.00;102079.88;4879755;29;20117;-48
2021/12/12 13:46:18;;;;;;;8.77;5.40;;;;;;;8.14;100.00;102080.94;4863782;29;20508;-48
2021/12/12 13:49:25;;;;;;;8.70;5.32;;;;;;;8.15;100.00;102081.78;4879961;29;20090;-47